Aérodrome :
LOGIN :

S'inscrire | Disclaimer

   EN    FR    IT 

 










Légende :    VFR   VFR Marginal   IFR   IFR Intensif   IFR Très Intensif
Visi : 
Plafond : 
>= 8 km
>= 3000ft
5 à 8 km
1000 à 3000 ft
1500m à 5 km
500 à 1000 ft
800 à 1500m
200 à 500 ft
< 800m
< 200 ft
Symboles :   Orages  Brouillard  Fortes neiges  Fortes précipitations  Vent > 20 kt
SIGMETs :   Divers  Orages  Givrage  Turbulence  Onde Orograph.  Cendres Volcan.







- Altitude de l'aérodrome : 1276 ft
- Code IATA : STR


EDDS - Stuttgart

DERNIER METAR :
  • 251150Z 28018KT 9999 -SHRA FEW020CB BKN040 09/M01 Q1021 NOSIG

METARs EXPIRÉS :
  • 251120Z 30018KT 9999 FEW020CB SCT040 07/M02 Q1021 NOSIG
  • 251050Z 30017KT 9999 VCSH FEW020CB SCT035 07/M01 Q1021 NOSIG
  • 251020Z 27016KT 240V300 9999 -SHGSRA FEW020CB BKN035 07/M01 Q1021 BECMG 28020G30KT
  • 250950Z 27020KT 9999 FEW025 08/M01 Q1021 BECMG 28020G30KT
  • 250920Z 27015KT 9999 FEW025 SCT035 08/M01 Q1021 NOSIG

TAF TAF EDDS
Valide du 25 à 12h jusqu'au 26 à 12h UTC


251100Z 2512/2612 29015G30KT 9999 SCT020 BKN035
PROB40
TEMPO 2512/2520 SHRA SCT025CB
PROB30
TEMPO 2512/2517 32020G35KT 3000 TSGS BKN013 BKN020CB
BECMG 2518/2521 30007KT
Pas de NOTAMs connus pour ce terrain.



MET'MAP, la Météo Aéronautique d'un coup d'oeil ! - Copyright ORBIFLY Décembre 2007 - Disclaimer

ORBIFLY MET'MAP TEAM :

Programmation & Développement : Alexandra Zaïnal
Conception & Développement : Baudouin d'Aumeries
Co-Programmation & Développement : Marc-Olivier Méhu
Soutien technique & logistique : Manuel Goepfert

Contact : metmap@orbifly.com




SOURCES & CREDITS :

   NOAA